createdAt,value
2022-10-13T00:00:48.284Z,6.78
2022-10-13T00:03:15.624Z,7.93
2022-10-13T00:05:44.583Z,6.70
2022-10-13T00:08:12.764Z,7.65
2022-10-13T00:10:40.620Z,7.40
2022-10-13T00:13:08.872Z,7.30
2022-10-13T00:15:45.061Z,8.10
2022-10-13T00:18:12.281Z,7.57
2022-10-13T00:20:48.875Z,7.72
2022-10-13T00:23:17.600Z,7.95
2022-10-13T00:25:47.210Z,7.05
2022-10-13T00:28:15.340Z,7.95
2022-10-13T00:30:42.501Z,8.45
2022-10-13T00:33:10.601Z,7.57
2022-10-13T00:35:45.558Z,8.30
2022-10-13T00:38:13.268Z,8.27
2022-10-13T00:40:54.649Z,7.85
2022-10-13T00:43:54.766Z,8.15
2022-10-13T00:46:22.609Z,8.68
2022-10-13T00:48:50.971Z,8.20
2022-10-13T00:51:22.547Z,9.27
2022-10-13T00:53:49.975Z,8.95
2022-10-13T00:56:19.832Z,9.23
2022-10-13T00:58:48.166Z,9.38
2022-10-13T01:01:15.316Z,9.07
2022-10-13T01:03:42.472Z,9.55
2022-10-13T01:06:10.227Z,9.57
2022-10-13T01:08:37.310Z,10.50
2022-10-13T01:11:31.278Z,10.15
2022-10-13T01:14:47.571Z,9.68
2022-10-13T01:17:23.309Z,10.23
2022-10-13T01:20:13.102Z,10.43
2022-10-13T01:23:06.655Z,9.93
2022-10-13T01:26:00.963Z,9.35
2022-10-13T01:28:35.727Z,9.13
2022-10-13T01:31:16.233Z,10.13
2022-10-13T01:34:01.075Z,9.52
2022-10-13T01:36:44.313Z,10.20
2022-10-13T01:39:26.081Z,9.30
2022-10-13T01:42:01.113Z,11.15
2022-10-13T01:44:34.250Z,10.05
2022-10-13T01:47:02.728Z,10.40
2022-10-13T01:49:34.891Z,10.35
2022-10-13T01:52:06.365Z,10.43
2022-10-13T01:54:33.729Z,11.10
2022-10-13T01:57:00.578Z,11.20
2022-10-13T01:59:29.807Z,11.05
2022-10-13T02:02:12.333Z,11.65
2022-10-13T02:05:17.003Z,13.57
2022-10-13T02:07:55.845Z,12.20
2022-10-13T02:10:36.720Z,12.57
2022-10-13T02:13:06.278Z,12.73
2022-10-13T02:15:44.753Z,13.32
2022-10-13T02:18:14.786Z,12.57
2022-10-13T02:20:42.440Z,12.90
2022-10-13T02:23:12.633Z,12.85
2022-10-13T02:25:40.715Z,13.20
2022-10-13T02:28:08.397Z,12.73
2022-10-13T02:30:35.406Z,13.20
2022-10-13T02:33:02.947Z,13.95
2022-10-13T02:35:31.025Z,13.63
2022-10-13T02:37:57.802Z,13.25
2022-10-13T02:40:24.974Z,13.20
2022-10-13T02:42:51.836Z,13.57
2022-10-13T02:45:19.271Z,12.82
2022-10-13T02:47:46.367Z,13.63
2022-10-13T02:50:13.413Z,13.25
2022-10-13T02:52:40.389Z,12.65
2022-10-13T02:55:08.013Z,14.15
2022-10-13T02:57:34.916Z,13.50
2022-10-13T03:00:01.881Z,12.48
2022-10-13T03:02:29.259Z,13.07
2022-10-13T03:04:56.197Z,12.35
2022-10-13T03:07:23.019Z,13.15
2022-10-13T03:09:49.949Z,14.25
2022-10-13T03:12:16.936Z,13.80
2022-10-13T03:14:43.982Z,13.25
2022-10-13T03:17:13.543Z,13.55
2022-10-13T03:19:40.640Z,13.10
2022-10-13T03:22:07.433Z,14.38
2022-10-13T03:24:34.379Z,13.40
2022-10-13T03:27:01.315Z,14.15
2022-10-13T03:29:29.002Z,13.25
2022-10-13T03:31:55.751Z,12.98
2022-10-13T03:34:22.563Z,13.43
2022-10-13T03:36:49.365Z,12.45
2022-10-13T03:39:16.395Z,12.38
2022-10-13T03:41:43.254Z,13.23
2022-10-13T03:44:13.343Z,12.40
2022-10-13T03:46:40.549Z,13.05
2022-10-13T03:49:07.369Z,12.07
2022-10-13T03:51:34.296Z,13.75
2022-10-13T03:54:01.069Z,13.55
2022-10-13T03:56:28.324Z,12.80
2022-10-13T03:58:59.964Z,13.60
2022-10-13T04:01:29.429Z,12.38
2022-10-13T04:03:57.460Z,13.40
2022-10-13T04:06:26.232Z,11.98
2022-10-13T04:08:53.395Z,13.43
2022-10-13T04:11:21.207Z,12.00
2022-10-13T04:13:48.215Z,13.70
2022-10-13T04:16:21.335Z,13.40
2022-10-13T04:18:53.527Z,14.00
2022-10-13T04:21:20.730Z,13.25
2022-10-13T04:23:47.516Z,12.57
2022-10-13T04:26:20.469Z,13.93
2022-10-13T04:28:48.568Z,13.02
2022-10-13T04:31:22.232Z,13.18
2022-10-13T04:33:50.103Z,12.98
2022-10-13T04:36:18.096Z,14.23
2022-10-13T04:38:45.074Z,12.80
2022-10-13T04:41:15.529Z,13.13
2022-10-13T04:43:42.387Z,12.57
2022-10-13T04:46:11.427Z,11.73
2022-10-13T04:48:38.278Z,12.60
2022-10-13T04:51:08.138Z,11.73
2022-10-13T04:53:35.943Z,14.18
2022-10-13T04:56:05.243Z,12.25
2022-10-13T04:58:32.492Z,14.00
2022-10-13T05:00:59.433Z,12.63
2022-10-13T05:03:26.647Z,12.85
2022-10-13T05:05:53.566Z,12.60
2022-10-13T05:08:20.648Z,13.15
2022-10-13T05:10:55.734Z,13.52
2022-10-13T05:15:50.783Z,14.23
2022-10-13T05:18:17.554Z,14.27
2022-10-13T05:20:44.331Z,16.50
2022-10-13T05:23:11.065Z,13.63
2022-10-13T05:25:38.031Z,15.00
2022-10-13T05:28:06.011Z,14.98
2022-10-13T05:30:33.078Z,15.32
2022-10-13T05:32:59.985Z,15.00
2022-10-13T05:35:27.779Z,14.00
2022-10-13T05:37:54.602Z,13.52
2022-10-13T05:40:21.446Z,14.80
2022-10-13T05:42:52.463Z,14.73
2022-10-13T05:45:21.645Z,14.32
2022-10-13T05:47:48.390Z,14.50
2022-10-13T05:50:15.347Z,14.90
2022-10-13T05:52:43.089Z,14.63
2022-10-13T05:55:13.326Z,14.55
2022-10-13T05:57:44.089Z,14.88
2022-10-13T06:00:14.400Z,14.07
2022-10-13T06:02:59.006Z,14.05
2022-10-13T06:05:27.567Z,14.23
2022-10-13T06:07:56.023Z,14.55
2022-10-13T06:10:23.408Z,13.55
2022-10-13T06:12:50.272Z,15.27
2022-10-13T06:15:17.163Z,14.05
2022-10-13T06:17:44.013Z,14.63
2022-10-13T06:20:11.253Z,14.25
2022-10-13T06:22:38.987Z,14.40
2022-10-13T06:25:08.808Z,14.25
2022-10-13T06:27:36.092Z,14.45
2022-10-13T06:30:06.494Z,13.73
2022-10-13T06:32:33.388Z,13.95
2022-10-13T06:35:03.814Z,14.10
2022-10-13T06:37:30.856Z,13.25
2022-10-13T06:39:57.789Z,13.32
2022-10-13T06:42:24.644Z,12.82
2022-10-13T06:44:51.717Z,15.13
2022-10-13T06:47:18.552Z,14.15
2022-10-13T06:49:45.340Z,13.90
2022-10-13T06:52:12.400Z,13.98
2022-10-13T06:54:39.272Z,13.57
2022-10-13T06:57:06.797Z,13.70
2022-10-13T06:59:33.625Z,13.50
2022-10-13T07:02:00.580Z,12.52
2022-10-13T07:04:28.413Z,13.05
2022-10-13T07:06:55.414Z,12.68
2022-10-13T07:09:22.766Z,14.00
2022-10-13T07:11:50.385Z,13.45
2022-10-13T07:14:17.318Z,13.07
2022-10-13T07:16:44.264Z,13.73
2022-10-13T07:19:11.233Z,13.07
2022-10-13T07:21:38.216Z,12.15
2022-10-13T07:24:05.484Z,13.30
2022-10-13T07:26:34.000Z,12.82
2022-10-13T07:29:01.266Z,12.77
2022-10-13T07:31:28.482Z,13.80
2022-10-13T07:33:57.193Z,13.23
2022-10-13T07:36:24.052Z,12.68
2022-10-13T07:38:50.849Z,13.43
2022-10-13T07:41:17.677Z,12.88
2022-10-13T07:43:44.806Z,13.68
2022-10-13T07:46:13.799Z,13.15
2022-10-13T07:48:41.052Z,12.40
2022-10-13T07:51:11.577Z,12.77
2022-10-13T07:53:38.722Z,12.18
2022-10-13T07:56:07.810Z,12.27
2022-10-13T07:58:37.560Z,10.48
2022-10-13T08:01:07.269Z,11.30
2022-10-13T08:03:34.341Z,11.23
2022-10-13T08:06:03.646Z,12.23
2022-10-13T08:08:30.878Z,12.57
2022-10-13T08:11:16.140Z,11.82
2022-10-13T08:13:50.340Z,11.60
2022-10-13T08:16:18.294Z,12.07
2022-10-13T08:18:48.525Z,11.75
2022-10-13T08:24:10.067Z,11.82
2022-10-13T08:26:37.241Z,11.15
2022-10-13T08:31:55.814Z,10.27
2022-10-13T08:34:23.986Z,11.15
2022-10-13T08:36:53.610Z,9.88
2022-10-13T08:39:25.127Z,10.80
2022-10-13T08:42:00.769Z,9.70
2022-10-13T08:47:44.531Z,10.05
2022-10-13T08:50:15.063Z,9.80
2022-10-13T08:53:03.032Z,9.57
2022-10-13T08:55:43.731Z,9.00
2022-10-13T08:58:22.757Z,8.10
2022-10-13T09:01:13.105Z,9.20
2022-10-13T09:04:16.197Z,8.38
2022-10-13T09:07:12.683Z,8.98
2022-10-13T09:09:39.866Z,8.50
2022-10-13T09:12:07.780Z,8.90
2022-10-13T09:14:36.835Z,8.32
2022-10-13T09:17:34.186Z,8.85
2022-10-13T09:20:16.314Z,8.60
2022-10-13T09:22:43.869Z,8.57
2022-10-13T09:25:19.432Z,9.50
2022-10-13T09:27:59.083Z,8.30
2022-10-13T09:30:31.273Z,8.32
2022-10-13T09:33:15.402Z,9.18
2022-10-13T09:35:44.032Z,8.98
2022-10-13T09:38:17.474Z,8.68
2022-10-13T09:40:55.796Z,9.35
2022-10-13T09:43:31.122Z,9.20
2022-10-13T09:45:59.351Z,9.93
2022-10-13T09:48:33.017Z,9.32
2022-10-13T09:51:00.096Z,9.07
2022-10-13T09:53:40.218Z,8.90
2022-10-13T09:56:27.072Z,9.32
2022-10-13T09:59:24.429Z,9.07
2022-10-13T10:01:54.778Z,9.02
2022-10-13T10:04:26.160Z,9.48
2022-10-13T10:06:53.465Z,9.48
2022-10-13T10:09:36.081Z,9.30
2022-10-13T10:12:04.590Z,8.77
2022-10-13T10:14:34.614Z,9.00
2022-10-13T10:17:23.442Z,8.77
2022-10-13T10:20:15.550Z,8.63
2022-10-13T10:23:01.724Z,8.98
2022-10-13T10:25:50.988Z,8.50
2022-10-13T10:28:22.888Z,8.13
2022-10-13T10:31:28.047Z,8.38
2022-10-13T10:34:01.013Z,7.60
2022-10-13T10:36:41.532Z,7.32
2022-10-13T10:39:47.865Z,8.55
2022-10-13T10:44:51.410Z,8.75
2022-10-13T10:47:30.315Z,8.60
2022-10-13T10:50:02.504Z,8.68
2022-10-13T10:52:45.415Z,8.18
2022-10-13T10:55:18.437Z,7.97
2022-10-13T10:58:06.309Z,9.00
2022-10-13T11:00:41.073Z,9.00
2022-10-13T11:03:31.644Z,8.60
2022-10-13T11:05:58.393Z,8.23
2022-10-13T11:08:28.968Z,8.10
2022-10-13T11:11:24.861Z,7.70
2022-10-13T11:14:02.850Z,8.70
2022-10-13T11:16:35.244Z,8.60
2022-10-13T11:19:26.006Z,8.20
2022-10-13T11:21:58.779Z,8.30
2022-10-13T11:24:39.629Z,9.00
2022-10-13T11:27:12.334Z,9.27
2022-10-13T11:29:49.397Z,8.45
2022-10-13T11:32:36.735Z,8.05
2022-10-13T11:35:06.435Z,8.82
2022-10-13T11:38:05.743Z,7.93
2022-10-13T11:40:58.411Z,8.25
2022-10-13T11:43:50.270Z,8.40
2022-10-13T11:46:39.780Z,8.07
2022-10-13T11:49:38.141Z,8.68
2022-10-13T11:52:17.984Z,8.23
2022-10-13T11:54:51.869Z,8.55
2022-10-13T11:57:27.067Z,8.82
2022-10-13T12:02:25.927Z,9.00
2022-10-13T12:05:07.602Z,8.95
2022-10-13T12:07:40.600Z,8.85
2022-10-13T12:10:15.055Z,8.15
2022-10-13T12:12:50.363Z,6.05
2022-10-13T12:15:38.053Z,8.85
2022-10-13T12:18:33.838Z,8.07
2022-10-13T12:21:11.035Z,8.07
2022-10-13T12:23:37.845Z,8.02
2022-10-13T12:26:05.180Z,7.88
2022-10-13T12:29:02.623Z,8.20
2022-10-13T12:31:59.583Z,7.40
2022-10-13T12:34:35.899Z,8.02
2022-10-13T12:37:11.697Z,8.25
2022-10-13T12:39:39.385Z,8.13
2022-10-13T12:42:11.026Z,8.40
2022-10-13T12:44:38.113Z,8.20
2022-10-13T12:47:04.901Z,7.63
2022-10-13T12:49:36.288Z,7.95
2022-10-13T12:52:14.434Z,8.18
2022-10-13T12:54:49.263Z,8.38
2022-10-13T12:57:23.845Z,7.47
2022-10-13T12:59:50.556Z,6.78
2022-10-13T13:02:22.464Z,7.55
2022-10-13T13:04:49.385Z,7.30
2022-10-13T13:07:37.463Z,7.75
2022-10-13T13:10:10.625Z,6.32
2022-10-13T13:12:38.222Z,6.60
2022-10-13T13:15:31.060Z,7.03
2022-10-13T13:18:23.332Z,6.95
2022-10-13T13:20:50.244Z,6.50
2022-10-13T13:23:19.099Z,6.75
2022-10-13T13:25:46.685Z,6.88
2022-10-13T13:28:15.385Z,6.40
2022-10-13T13:30:42.903Z,6.30
2022-10-13T13:33:12.695Z,6.10
2022-10-13T13:35:39.627Z,6.30
2022-10-13T13:38:06.448Z,5.90
2022-10-13T13:40:33.271Z,5.60
2022-10-13T13:43:00.281Z,5.40
2022-10-13T13:45:27.265Z,5.47
2022-10-13T13:47:59.533Z,5.15
2022-10-13T13:50:32.815Z,5.00
2022-10-13T13:52:59.803Z,5.47
2022-10-13T13:55:27.749Z,5.28
2022-10-13T13:57:54.544Z,4.65
2022-10-13T14:00:21.521Z,5.05
2022-10-13T14:02:48.574Z,5.25
2022-10-13T14:05:15.663Z,5.47
2022-10-13T14:07:42.408Z,5.10
2022-10-13T14:10:10.498Z,5.22
2022-10-13T14:12:37.883Z,5.50
2022-10-13T14:15:05.355Z,5.80
2022-10-13T14:17:32.148Z,5.38
2022-10-13T14:19:58.899Z,5.65
2022-10-13T14:22:26.258Z,5.80
2022-10-13T14:24:53.491Z,5.30
2022-10-13T14:27:20.348Z,5.43
2022-10-13T14:29:47.231Z,5.75
2022-10-13T14:32:14.033Z,5.88
2022-10-13T14:34:40.756Z,5.15
2022-10-13T14:37:07.589Z,4.95
2022-10-13T14:39:34.370Z,5.53
2022-10-13T14:42:01.205Z,5.88
2022-10-13T14:44:28.018Z,5.13
2022-10-13T14:46:54.845Z,5.43
2022-10-13T14:49:21.623Z,5.05
2022-10-13T14:51:48.568Z,5.22
2022-10-13T14:54:15.513Z,5.07
2022-10-13T14:56:42.242Z,4.88
2022-10-13T14:59:11.080Z,4.93
2022-10-13T15:01:38.613Z,5.25
2022-10-13T15:04:05.541Z,5.05
2022-10-13T15:06:32.565Z,5.45
2022-10-13T15:08:59.583Z,4.80
2022-10-13T15:11:28.081Z,5.40
2022-10-13T15:13:56.331Z,5.22
2022-10-13T15:16:27.564Z,5.07
2022-10-13T15:18:55.373Z,5.10
2022-10-13T15:21:22.996Z,4.80
2022-10-13T15:23:49.990Z,5.00
2022-10-13T15:26:19.100Z,4.45
2022-10-13T15:28:51.736Z,4.80
2022-10-13T15:31:19.876Z,5.65
2022-10-13T15:33:49.704Z,4.55
2022-10-13T15:36:16.674Z,5.00
2022-10-13T15:38:43.587Z,4.90
2022-10-13T15:41:10.878Z,5.47
2022-10-13T15:43:38.050Z,4.65
2022-10-13T15:46:07.842Z,5.55
2022-10-13T15:48:35.581Z,5.03
2022-10-13T15:51:08.965Z,5.60
2022-10-13T15:53:38.086Z,6.03
2022-10-13T15:56:04.942Z,5.22
2022-10-13T15:58:31.808Z,6.30
2022-10-13T16:00:58.597Z,5.70
2022-10-13T16:03:29.726Z,5.38
2022-10-13T16:05:56.995Z,5.38
2022-10-13T16:08:23.900Z,5.40
2022-10-13T16:10:50.665Z,5.40
2022-10-13T16:13:17.422Z,7.82
2022-10-13T16:15:44.278Z,8.57
2022-10-13T16:18:11.154Z,8.10
2022-10-13T16:20:39.486Z,7.28
2022-10-13T16:23:06.313Z,7.32
2022-10-13T16:25:33.173Z,8.52
2022-10-13T16:28:00.819Z,8.70
2022-10-13T16:30:30.412Z,8.07
2022-10-13T16:32:58.060Z,8.55
2022-10-13T16:35:24.919Z,8.45
2022-10-13T16:37:51.932Z,9.30
2022-10-13T16:40:18.907Z,9.50
2022-10-13T16:42:46.219Z,9.85
2022-10-13T16:45:13.309Z,10.20
2022-10-13T16:47:40.345Z,10.55
2022-10-13T16:50:09.724Z,10.90
2022-10-13T16:52:37.939Z,10.98
2022-10-13T16:55:06.144Z,11.77
2022-10-13T16:57:33.212Z,10.98
2022-10-13T17:00:00.342Z,11.57
2022-10-13T17:02:27.302Z,11.82
2022-10-13T17:04:54.418Z,13.07
2022-10-13T17:07:21.499Z,11.75
2022-10-13T17:09:48.371Z,11.98
2022-10-13T17:12:15.254Z,12.13
2022-10-13T17:14:42.089Z,12.57
2022-10-13T17:17:09.079Z,11.75
2022-10-13T17:19:36.158Z,12.27
2022-10-13T17:22:03.213Z,13.30
2022-10-13T17:24:30.161Z,13.40
2022-10-13T17:26:57.123Z,13.25
2022-10-13T17:29:23.932Z,12.73
2022-10-13T17:31:50.830Z,13.68
2022-10-13T17:34:18.006Z,13.13
2022-10-13T17:36:46.405Z,12.23
2022-10-13T17:39:13.823Z,13.00
2022-10-13T17:41:41.458Z,13.35
2022-10-13T17:44:08.708Z,14.40
2022-10-13T17:46:38.712Z,15.25
2022-10-13T17:49:08.040Z,15.07
2022-10-13T17:51:35.605Z,13.95
2022-10-13T17:54:03.213Z,13.77
2022-10-13T17:56:30.466Z,12.77
2022-10-13T17:58:57.394Z,14.73
2022-10-13T18:01:27.382Z,15.57
2022-10-13T18:03:56.478Z,15.68
2022-10-13T18:06:23.811Z,16.17
2022-10-13T18:08:51.220Z,16.15
2022-10-13T18:11:21.142Z,15.38
2022-10-13T18:13:48.929Z,14.80
2022-10-13T18:16:19.061Z,14.50
2022-10-13T18:18:47.099Z,15.52
2022-10-13T18:21:15.697Z,16.33
2022-10-13T18:23:43.604Z,14.80
2022-10-13T18:26:13.500Z,17.88
2022-10-13T18:28:43.723Z,17.05
2022-10-13T18:31:20.074Z,16.58
2022-10-13T18:33:47.175Z,18.00
2022-10-13T18:36:23.703Z,16.80
2022-10-13T18:38:51.946Z,17.65
2022-10-13T18:41:20.742Z,15.73
2022-10-13T18:43:53.107Z,17.65
2022-10-13T18:46:20.215Z,17.48
2022-10-13T18:48:47.049Z,16.90
2022-10-13T18:51:16.843Z,17.77
2022-10-13T18:53:46.472Z,17.70
2022-10-13T18:56:21.320Z,17.75
2022-10-13T18:58:49.036Z,18.77
2022-10-13T19:01:21.363Z,17.75
2022-10-13T19:03:53.483Z,18.85
2022-10-13T19:06:32.323Z,19.17
2022-10-13T19:09:07.597Z,18.48
2022-10-13T19:11:35.059Z,18.45
2022-10-13T19:14:07.358Z,18.55
2022-10-13T19:16:37.170Z,19.92
2022-10-13T19:19:04.296Z,18.33
2022-10-13T19:21:32.685Z,19.20
2022-10-13T19:24:00.149Z,17.85
2022-10-13T19:26:29.861Z,18.35
2022-10-13T19:29:06.420Z,17.20
2022-10-13T19:31:35.128Z,17.45
2022-10-13T19:34:02.401Z,18.95
2022-10-13T19:36:31.803Z,17.73
2022-10-13T19:39:00.054Z,18.13
2022-10-13T19:41:33.346Z,17.00
2022-10-13T19:44:01.064Z,16.50
2022-10-13T19:46:28.213Z,17.83
2022-10-13T19:48:55.103Z,18.17
2022-10-13T19:51:22.038Z,15.75
2022-10-13T19:53:49.127Z,17.38
2022-10-13T19:56:27.801Z,16.35
2022-10-13T19:58:54.899Z,16.17
2022-10-13T20:01:22.239Z,17.10
2022-10-13T20:03:49.635Z,15.68
2022-10-13T20:06:17.010Z,16.73
2022-10-13T20:08:45.240Z,20.42
2022-10-13T20:11:17.289Z,34.20
2022-10-13T20:13:50.947Z,27.73
2022-10-13T20:16:19.963Z,23.88
2022-10-13T20:18:54.799Z,21.77
2022-10-13T20:21:23.625Z,17.88
2022-10-13T20:23:50.738Z,17.25
2022-10-13T20:26:19.083Z,16.52
2022-10-13T20:28:47.682Z,16.77
2022-10-13T20:31:16.566Z,17.65
2022-10-13T20:33:43.748Z,15.80
2022-10-13T20:36:16.001Z,15.98
2022-10-13T20:38:43.082Z,16.52
2022-10-13T20:41:24.907Z,16.63
2022-10-13T20:43:53.284Z,19.73
2022-10-13T20:46:21.839Z,19.10
2022-10-13T20:51:36.749Z,19.25
2022-10-13T20:54:03.675Z,17.35
2022-10-13T20:56:30.722Z,16.05
2022-10-13T20:59:03.653Z,15.57
2022-10-13T21:01:30.906Z,14.93
2022-10-13T21:03:58.445Z,14.95
2022-10-13T21:06:26.613Z,14.40
2022-10-13T21:08:53.552Z,14.60
2022-10-13T21:11:22.508Z,14.15
2022-10-13T21:13:50.644Z,13.70
2022-10-13T21:16:20.142Z,15.65
2022-10-13T21:18:48.922Z,14.85
2022-10-13T21:21:21.397Z,14.98
2022-10-13T21:23:52.737Z,14.55
2022-10-13T21:26:22.094Z,15.98
2022-10-13T21:28:50.674Z,15.05
2022-10-13T21:31:22.533Z,15.18
2022-10-13T21:33:50.316Z,14.68
2022-10-13T21:36:26.716Z,15.15
2022-10-13T21:38:56.371Z,15.00
2022-10-13T21:41:24.984Z,14.40
2022-10-13T21:43:52.919Z,15.60
2022-10-13T21:46:22.436Z,15.63
2022-10-13T21:48:49.971Z,15.85
2022-10-13T21:51:23.082Z,15.90
2022-10-13T21:53:51.926Z,15.20
2022-10-13T21:56:19.797Z,15.38
2022-10-13T21:58:47.488Z,15.80
2022-10-13T22:01:15.085Z,15.57
2022-10-13T22:03:42.006Z,16.00
2022-10-13T22:06:17.498Z,15.93
2022-10-13T22:08:47.221Z,15.88
2022-10-13T22:11:16.163Z,17.52
2022-10-13T22:13:43.000Z,16.92
2022-10-13T22:16:16.943Z,16.23
2022-10-13T22:18:44.009Z,14.90
2022-10-13T22:21:15.184Z,16.48
2022-10-13T22:23:42.116Z,16.40
2022-10-13T22:26:09.373Z,15.45
2022-10-13T22:28:37.576Z,16.23
2022-10-13T22:31:09.823Z,15.07
2022-10-13T22:33:37.911Z,15.55
2022-10-13T22:36:09.287Z,15.70
2022-10-13T22:38:36.460Z,14.70
2022-10-13T22:41:04.908Z,15.68
2022-10-13T22:43:32.128Z,15.52
2022-10-13T22:45:59.269Z,15.73
2022-10-13T22:48:26.085Z,15.85
2022-10-13T22:50:53.061Z,15.85
2022-10-13T22:53:19.884Z,14.20
2022-10-13T22:55:46.634Z,16.30
2022-10-13T22:58:13.473Z,16.10
2022-10-13T23:00:40.513Z,16.50
2022-10-13T23:03:07.441Z,15.38
2022-10-13T23:05:34.311Z,17.70
2022-10-13T23:08:01.143Z,18.85
2022-10-13T23:10:27.968Z,17.58
2022-10-13T23:12:55.129Z,17.98
2022-10-13T23:15:21.944Z,17.45
2022-10-13T23:17:48.706Z,16.88
2022-10-13T23:20:15.576Z,17.70
2022-10-13T23:22:42.292Z,18.65
2022-10-13T23:25:09.244Z,18.33
2022-10-13T23:27:36.059Z,18.35
2022-10-13T23:30:03.150Z,19.42
2022-10-13T23:32:29.900Z,19.70
2022-10-13T23:34:56.670Z,19.95
2022-10-13T23:37:23.707Z,19.77
2022-10-13T23:39:50.789Z,19.75
2022-10-13T23:42:17.632Z,19.85
2022-10-13T23:44:44.404Z,20.48
2022-10-13T23:47:11.172Z,21.90
2022-10-13T23:49:37.960Z,21.33
2022-10-13T23:52:09.950Z,23.33
2022-10-13T23:54:37.822Z,22.35
2022-10-13T23:57:04.592Z,22.20
2022-10-13T23:59:31.429Z,23.38
